createdAt,value
2023-02-22T00:01:47.584Z,100.00
2023-02-22T00:04:16.100Z,100.00
2023-02-22T00:06:42.777Z,100.00
2023-02-22T00:09:10.380Z,100.00
2023-02-22T00:11:38.654Z,100.00
2023-02-22T00:14:05.776Z,100.00
2023-02-22T00:16:39.589Z,100.00
2023-02-22T00:19:06.364Z,100.00
2023-02-22T00:21:33.137Z,100.00
2023-02-22T00:23:59.832Z,100.00
2023-02-22T00:26:26.968Z,100.00
2023-02-22T00:28:54.525Z,100.00
2023-02-22T00:31:22.055Z,100.00
2023-02-22T00:33:48.753Z,100.00
2023-02-22T00:36:15.413Z,100.00
2023-02-22T00:38:42.518Z,100.00
2023-02-22T00:41:10.433Z,100.00
2023-02-22T00:43:37.163Z,100.00
2023-02-22T00:46:04.018Z,100.00
2023-02-22T00:48:31.053Z,100.00
2023-02-22T00:50:57.753Z,100.00
2023-02-22T00:53:25.980Z,100.00
2023-02-22T00:55:53.071Z,100.00
2023-02-22T00:58:20.454Z,100.00
2023-02-22T01:00:47.580Z,100.00
2023-02-22T01:03:19.261Z,100.00
2023-02-22T01:05:47.143Z,100.00
2023-02-22T01:08:15.817Z,100.00
2023-02-22T01:10:43.405Z,100.00
2023-02-22T01:13:12.474Z,100.00
2023-02-22T01:15:42.010Z,100.00
2023-02-22T01:18:09.816Z,100.00
2023-02-22T01:20:37.050Z,100.00
2023-02-22T01:23:07.030Z,100.00
2023-02-22T01:25:35.118Z,100.00
2023-02-22T01:28:04.792Z,100.00
2023-02-22T01:30:33.648Z,100.00
2023-02-22T01:33:02.763Z,100.00
2023-02-22T01:35:34.623Z,100.00
2023-02-22T01:38:01.558Z,100.00
2023-02-22T01:40:42.053Z,100.00
2023-02-22T01:43:34.952Z,100.00
2023-02-22T01:46:01.562Z,100.00
2023-02-22T01:48:39.872Z,100.00
2023-02-22T01:51:12.494Z,100.00
2023-02-22T01:54:06.028Z,100.00
2023-02-22T01:56:36.514Z,100.00
2023-02-22T01:59:08.472Z,100.00
2023-02-22T02:01:40.323Z,100.00
2023-02-22T02:04:10.940Z,100.00
2023-02-22T02:06:38.689Z,100.00
2023-02-22T02:09:19.248Z,100.00
2023-02-22T02:11:46.912Z,100.00
2023-02-22T02:14:14.385Z,100.00
2023-02-22T02:16:45.961Z,100.00
2023-02-22T02:19:30.905Z,100.00
2023-02-22T02:22:25.486Z,100.00
2023-02-22T02:25:24.515Z,100.00
2023-02-22T02:28:05.984Z,100.00
2023-02-22T02:30:41.886Z,100.00
2023-02-22T02:33:17.397Z,100.00
2023-02-22T02:35:56.038Z,100.00
2023-02-22T02:38:34.092Z,100.00
2023-02-22T02:41:10.898Z,100.00
2023-02-22T02:43:51.974Z,100.00
2023-02-22T02:46:26.417Z,100.00
2023-02-22T02:48:57.743Z,100.00
2023-02-22T02:51:31.087Z,100.00
2023-02-22T02:53:58.511Z,100.00
2023-02-22T02:56:25.512Z,100.00
2023-02-22T02:58:53.936Z,100.00
2023-02-22T03:01:25.899Z,100.00
2023-02-22T03:04:20.497Z,100.00
2023-02-22T03:06:49.980Z,100.00
2023-02-22T03:09:25.810Z,100.00
2023-02-22T03:12:07.970Z,100.00
2023-02-22T03:15:00.407Z,100.00
2023-02-22T03:17:51.219Z,100.00
2023-02-22T03:20:31.587Z,100.00
2023-02-22T03:23:11.194Z,100.00
2023-02-22T03:25:43.528Z,100.00
2023-02-22T03:28:14.313Z,100.00
2023-02-22T03:31:04.459Z,100.00
2023-02-22T03:33:41.730Z,100.00
2023-02-22T03:36:21.853Z,100.00
2023-02-22T03:38:50.096Z,100.00
2023-02-22T03:41:24.079Z,100.00
2023-02-22T03:43:56.342Z,100.00
2023-02-22T03:46:24.285Z,100.00
2023-02-22T03:49:09.398Z,100.00
2023-02-22T03:51:36.700Z,100.00
2023-02-22T03:54:04.761Z,100.00
2023-02-22T03:56:47.182Z,100.00
2023-02-22T03:59:14.776Z,100.00
2023-02-22T04:01:41.436Z,100.00
2023-02-22T04:04:08.274Z,100.00
2023-02-22T04:06:34.903Z,100.00
2023-02-22T04:09:01.577Z,100.00
2023-02-22T04:11:28.480Z,100.00
2023-02-22T04:13:55.144Z,100.00
2023-02-22T04:16:21.820Z,100.00
2023-02-22T04:18:48.418Z,100.00
2023-02-22T04:21:15.255Z,100.00
2023-02-22T04:23:42.034Z,100.00
2023-02-22T04:26:08.677Z,100.00
2023-02-22T04:28:35.314Z,100.00
2023-02-22T04:31:01.987Z,100.00
2023-02-22T04:33:28.559Z,100.00
2023-02-22T04:35:57.782Z,100.00
2023-02-22T04:38:26.142Z,100.00
2023-02-22T04:40:54.101Z,100.00
2023-02-22T04:43:20.799Z,100.00
2023-02-22T04:45:47.575Z,100.00
2023-02-22T04:48:14.211Z,100.00
2023-02-22T04:50:41.022Z,100.00
2023-02-22T04:53:07.708Z,100.00
2023-02-22T04:55:34.345Z,100.00
2023-02-22T04:58:01.106Z,100.00
2023-02-22T05:00:27.978Z,100.00
2023-02-22T05:02:54.636Z,100.00
2023-02-22T05:05:22.137Z,100.00
2023-02-22T05:07:49.687Z,100.00
2023-02-22T05:10:17.049Z,100.00
2023-02-22T05:12:43.716Z,100.00
2023-02-22T05:15:11.083Z,100.00
2023-02-22T05:17:37.669Z,100.00
2023-02-22T05:20:05.638Z,100.00
2023-02-22T05:22:32.308Z,100.00
2023-02-22T05:24:58.892Z,100.00
2023-02-22T05:27:25.546Z,100.00
2023-02-22T05:29:52.158Z,100.00
2023-02-22T05:32:18.834Z,100.00
2023-02-22T05:34:45.741Z,100.00
2023-02-22T05:37:12.411Z,100.00
2023-02-22T05:39:39.314Z,100.00
2023-02-22T05:42:05.979Z,100.00
2023-02-22T05:44:32.623Z,100.00
2023-02-22T05:46:59.244Z,100.00
2023-02-22T05:49:25.891Z,100.00
2023-02-22T05:51:52.506Z,100.00
2023-02-22T05:54:19.119Z,100.00
2023-02-22T05:56:45.729Z,100.00
2023-02-22T05:59:12.303Z,100.00
2023-02-22T06:01:38.877Z,100.00
2023-02-22T06:04:05.616Z,100.00
2023-02-22T06:06:32.243Z,100.00
2023-02-22T06:08:58.945Z,100.00
2023-02-22T06:11:25.631Z,100.00
2023-02-22T06:13:53.610Z,100.00
2023-02-22T06:16:21.901Z,100.00
2023-02-22T06:18:49.022Z,100.00
2023-02-22T06:21:15.960Z,100.00
2023-02-22T06:23:42.962Z,100.00
2023-02-22T06:26:09.851Z,100.00
2023-02-22T06:28:36.823Z,100.00
2023-02-22T06:31:03.798Z,100.00
2023-02-22T06:33:30.553Z,100.00
2023-02-22T06:35:57.210Z,100.00
2023-02-22T06:38:25.389Z,100.00
2023-02-22T06:40:52.175Z,100.00
2023-02-22T06:43:19.007Z,100.00
2023-02-22T06:45:45.800Z,100.00
2023-02-22T06:48:12.925Z,100.00
2023-02-22T06:50:39.628Z,100.00
2023-02-22T06:53:06.410Z,100.00
2023-02-22T06:55:34.823Z,100.00
2023-02-22T06:58:02.662Z,100.00
2023-02-22T07:00:31.015Z,100.00
2023-02-22T07:02:59.112Z,100.00
2023-02-22T07:05:27.087Z,100.00
2023-02-22T07:07:55.598Z,100.00
2023-02-22T07:10:26.631Z,100.00
2023-02-22T07:12:53.788Z,100.00
2023-02-22T07:15:24.909Z,100.00
2023-02-22T07:17:52.611Z,100.00
2023-02-22T07:20:20.849Z,100.00
2023-02-22T07:22:48.849Z,100.00
2023-02-22T07:25:15.690Z,100.00
2023-02-22T07:27:43.313Z,100.00
2023-02-22T07:30:28.063Z,100.00
2023-02-22T07:32:55.631Z,100.00
2023-02-22T07:35:25.773Z,100.00
2023-02-22T07:37:55.760Z,100.00
2023-02-22T07:40:24.059Z,100.00
2023-02-22T07:43:02.167Z,100.00
2023-02-22T07:45:31.537Z,100.00
2023-02-22T07:47:58.629Z,100.00
2023-02-22T07:50:26.776Z,100.00
2023-02-22T07:52:56.260Z,100.00
2023-02-22T07:55:24.216Z,100.00
2023-02-22T07:57:52.696Z,100.00
2023-02-22T08:00:28.398Z,100.00
2023-02-22T08:02:55.660Z,100.00
2023-02-22T08:05:24.755Z,100.00
2023-02-22T08:07:51.516Z,100.00
2023-02-22T08:10:20.108Z,100.00
2023-02-22T08:12:46.828Z,100.00
2023-02-22T08:15:19.674Z,100.00
2023-02-22T08:17:46.297Z,100.00
2023-02-22T08:20:13.641Z,100.00
2023-02-22T08:22:43.395Z,100.00
2023-02-22T08:25:10.333Z,100.00
2023-02-22T08:27:37.027Z,100.00
2023-02-22T08:30:04.463Z,100.00
2023-02-22T08:32:31.229Z,100.00
2023-02-22T08:34:57.962Z,100.00
2023-02-22T08:37:24.602Z,100.00
2023-02-22T08:39:53.698Z,100.00
2023-02-22T08:42:20.291Z,100.00
2023-02-22T08:44:46.989Z,100.00
2023-02-22T08:47:14.118Z,100.00
2023-02-22T08:49:42.199Z,100.00
2023-02-22T08:52:09.364Z,100.00
2023-02-22T08:54:36.143Z,100.00
2023-02-22T08:57:02.807Z,100.00
2023-02-22T08:59:29.550Z,100.00
2023-02-22T09:01:56.170Z,100.00
2023-02-22T09:04:22.782Z,100.00
2023-02-22T09:06:51.885Z,100.00
2023-02-22T09:09:21.436Z,100.00
2023-02-22T09:11:48.510Z,100.00
2023-02-22T09:14:16.559Z,100.00
2023-02-22T09:16:45.351Z,100.00
2023-02-22T09:19:12.430Z,100.00
2023-02-22T09:21:40.364Z,100.00
2023-02-22T09:24:10.946Z,100.00
2023-02-22T09:26:47.318Z,100.00
2023-02-22T09:29:14.289Z,100.00
2023-02-22T09:31:41.754Z,100.00
2023-02-22T09:34:15.480Z,100.00
2023-02-22T09:36:43.627Z,100.00
2023-02-22T09:39:11.480Z,100.00
2023-02-22T09:41:50.405Z,100.00
2023-02-22T09:44:36.278Z,100.00
2023-02-22T09:47:04.647Z,100.00
2023-02-22T09:49:39.880Z,100.00
2023-02-22T09:52:06.602Z,100.00
2023-02-22T09:55:05.671Z,100.00
2023-02-22T09:57:37.082Z,100.00
2023-02-22T10:00:13.614Z,99.43
2023-02-22T10:03:01.427Z,99.63
2023-02-22T10:05:37.651Z,100.00
2023-02-22T10:08:10.269Z,99.25
2023-02-22T10:10:41.218Z,99.76
2023-02-22T10:13:27.250Z,99.12
2023-02-22T10:16:10.848Z,99.23
2023-02-22T10:18:40.260Z,98.64
2023-02-22T10:21:13.170Z,96.85
2023-02-22T10:23:49.120Z,95.58
2023-02-22T10:26:22.538Z,95.67
2023-02-22T10:29:19.471Z,96.87
2023-02-22T10:31:52.061Z,96.93
2023-02-22T10:34:24.985Z,97.19
2023-02-22T10:36:59.349Z,95.90
2023-02-22T10:39:35.076Z,94.45
2023-02-22T10:42:08.464Z,94.92
2023-02-22T10:44:36.151Z,96.57
2023-02-22T10:47:06.425Z,95.92
2023-02-22T10:49:39.210Z,95.01
2023-02-22T10:52:19.444Z,95.53
2023-02-22T10:54:50.438Z,95.32
2023-02-22T10:57:22.956Z,94.90
2023-02-22T10:59:52.079Z,93.98
2023-02-22T11:02:30.834Z,94.16
2023-02-22T11:05:00.981Z,94.18
2023-02-22T11:07:29.664Z,93.74
2023-02-22T11:10:05.653Z,93.04
2023-02-22T11:12:42.413Z,91.57
2023-02-22T11:15:22.367Z,91.34
2023-02-22T11:17:52.441Z,92.28
2023-02-22T11:20:25.508Z,92.69
2023-02-22T11:22:54.798Z,90.37
2023-02-22T11:25:27.270Z,91.21
2023-02-22T11:27:54.688Z,90.61
2023-02-22T11:30:33.142Z,89.33
2023-02-22T11:33:06.439Z,89.64
2023-02-22T11:35:37.766Z,89.47
2023-02-22T11:38:28.906Z,88.96
2023-02-22T11:41:08.151Z,87.87
2023-02-22T11:43:35.456Z,85.43
2023-02-22T11:46:18.808Z,85.05
2023-02-22T11:49:13.058Z,85.78
2023-02-22T11:52:01.302Z,83.66
2023-02-22T11:54:36.831Z,82.38
2023-02-22T11:57:22.352Z,81.29
2023-02-22T12:00:12.320Z,79.63
2023-02-22T12:02:59.150Z,81.91
2023-02-22T12:05:42.736Z,79.21
2023-02-22T12:08:36.668Z,77.64
2023-02-22T12:11:25.199Z,79.74
2023-02-22T12:14:19.277Z,81.34
2023-02-22T12:17:19.674Z,80.15
2023-02-22T12:19:53.471Z,80.72
2023-02-22T12:22:33.538Z,76.70
2023-02-22T12:25:16.191Z,72.70
2023-02-22T12:27:49.318Z,76.65
2023-02-22T12:30:34.176Z,75.95
2023-02-22T12:33:07.069Z,78.14
2023-02-22T12:35:37.666Z,76.25
2023-02-22T12:38:18.220Z,74.25
2023-02-22T12:40:57.254Z,75.10
2023-02-22T12:44:20.311Z,73.13
2023-02-22T12:46:53.424Z,74.73
2023-02-22T12:49:47.777Z,71.82
2023-02-22T12:52:25.339Z,72.86
2023-02-22T12:55:25.329Z,72.74
2023-02-22T12:58:21.792Z,72.67
2023-02-22T13:00:51.278Z,71.43
2023-02-22T13:03:26.963Z,70.63
2023-02-22T13:06:23.210Z,69.12
2023-02-22T13:09:16.950Z,69.03
2023-02-22T13:12:13.000Z,68.38
2023-02-22T13:14:59.019Z,66.67
2023-02-22T13:17:44.208Z,68.46
2023-02-22T13:20:33.296Z,67.69
2023-02-22T13:23:05.496Z,68.15
2023-02-22T13:25:39.042Z,65.81
2023-02-22T13:28:21.818Z,65.28
2023-02-22T13:31:03.756Z,65.85
2023-02-22T13:33:33.194Z,69.00
2023-02-22T13:36:19.981Z,66.62
2023-02-22T13:39:20.680Z,63.51
2023-02-22T13:41:52.260Z,63.02
2023-02-22T13:44:27.775Z,60.43
2023-02-22T13:47:07.886Z,65.55
2023-02-22T13:50:06.407Z,65.08
2023-02-22T13:52:38.971Z,66.42
2023-02-22T13:55:14.988Z,65.05
2023-02-22T13:57:51.801Z,63.62
2023-02-22T14:00:23.092Z,60.77
2023-02-22T14:02:59.052Z,57.42
2023-02-22T14:05:36.397Z,60.01
2023-02-22T14:08:03.657Z,59.59
2023-02-22T14:10:48.458Z,56.41
2023-02-22T14:13:17.792Z,59.80
2023-02-22T14:16:02.908Z,59.85
2023-02-22T14:18:44.791Z,57.16
2023-02-22T14:21:17.370Z,58.25
2023-02-22T14:23:46.115Z,60.76
2023-02-22T14:26:29.830Z,61.51
2023-02-22T14:29:02.940Z,60.89
2023-02-22T14:31:37.495Z,59.69
2023-02-22T14:34:06.409Z,60.10
2023-02-22T14:36:41.863Z,59.44
2023-02-22T14:39:14.226Z,59.84
2023-02-22T14:41:47.964Z,60.60
2023-02-22T14:44:21.117Z,61.50
2023-02-22T14:46:50.145Z,61.18
2023-02-22T14:49:21.238Z,60.78
2023-02-22T14:51:58.622Z,63.05
2023-02-22T14:55:05.832Z,63.50
2023-02-22T14:57:46.390Z,62.22
2023-02-22T15:00:22.716Z,62.67
2023-02-22T15:02:53.692Z,64.36
2023-02-22T15:05:20.962Z,65.02
2023-02-22T15:07:54.444Z,64.81
2023-02-22T15:10:26.111Z,65.32
2023-02-22T15:13:09.130Z,66.39
2023-02-22T15:15:47.619Z,66.44
2023-02-22T15:18:43.422Z,67.22
2023-02-22T15:21:13.550Z,66.79
2023-02-22T15:23:56.413Z,67.84
2023-02-22T15:26:51.851Z,68.47
2023-02-22T15:29:26.040Z,69.92
2023-02-22T15:31:56.463Z,69.47
2023-02-22T15:34:33.369Z,69.49
2023-02-22T15:37:22.374Z,70.61
2023-02-22T15:39:49.110Z,70.11
2023-02-22T15:42:21.123Z,69.59
2023-02-22T15:44:52.474Z,70.81
2023-02-22T15:47:22.472Z,71.42
2023-02-22T15:50:17.003Z,72.13
2023-02-22T15:52:53.286Z,71.57
2023-02-22T15:55:25.700Z,71.47
2023-02-22T15:57:53.120Z,71.83
2023-02-22T16:00:36.145Z,71.63
2023-02-22T16:03:06.787Z,71.96
2023-02-22T16:05:46.714Z,72.89
2023-02-22T16:08:21.704Z,73.09
2023-02-22T16:11:15.029Z,73.56
2023-02-22T16:13:42.870Z,74.11
2023-02-22T16:16:22.403Z,74.58
2023-02-22T16:18:50.632Z,74.69
2023-02-22T16:21:21.691Z,75.10
2023-02-22T16:23:55.983Z,75.12
2023-02-22T16:26:35.040Z,75.79
2023-02-22T16:29:08.234Z,76.60
2023-02-22T16:31:37.319Z,76.76
2023-02-22T16:34:06.910Z,77.12
2023-02-22T16:36:46.318Z,77.52
2023-02-22T16:39:29.570Z,78.31
2023-02-22T16:42:01.987Z,78.60
2023-02-22T16:44:28.970Z,78.53
2023-02-22T16:46:59.391Z,78.54
2023-02-22T16:49:26.800Z,79.36
2023-02-22T16:51:59.898Z,79.51
2023-02-22T16:54:30.017Z,80.01
2023-02-22T16:57:00.372Z,80.30
2023-02-22T16:59:27.052Z,80.36
2023-02-22T17:01:53.899Z,80.26
2023-02-22T17:04:26.607Z,80.18
2023-02-22T17:06:53.557Z,79.95
2023-02-22T17:09:20.264Z,79.85
2023-02-22T17:11:50.263Z,80.12
2023-02-22T17:14:19.371Z,80.25
2023-02-22T17:16:48.753Z,80.62
2023-02-22T17:19:16.458Z,81.01
2023-02-22T17:21:43.382Z,81.00
2023-02-22T17:24:14.821Z,81.56
2023-02-22T17:26:42.003Z,81.75
2023-02-22T17:29:08.719Z,82.16
2023-02-22T17:31:35.534Z,82.80
2023-02-22T17:34:04.735Z,82.83
2023-02-22T17:36:33.381Z,82.89
2023-02-22T17:39:00.586Z,82.85
2023-02-22T17:41:27.247Z,83.22
2023-02-22T17:43:54.416Z,83.71
2023-02-22T17:46:21.313Z,83.79
2023-02-22T17:48:54.081Z,84.67
2023-02-22T17:51:22.881Z,85.93
2023-02-22T17:53:49.474Z,88.62
2023-02-22T17:56:18.912Z,87.06
2023-02-22T17:58:46.747Z,87.43
2023-02-22T18:01:27.124Z,86.77
2023-02-22T18:03:59.676Z,87.69
2023-02-22T18:06:29.977Z,88.31
2023-02-22T18:08:59.158Z,88.37
2023-02-22T18:11:28.163Z,88.43
2023-02-22T18:13:56.637Z,88.55
2023-02-22T18:16:25.979Z,88.86
2023-02-22T18:18:52.867Z,88.10
2023-02-22T18:21:19.503Z,89.18
2023-02-22T18:23:46.346Z,89.03
2023-02-22T18:26:21.354Z,88.51
2023-02-22T18:28:48.775Z,87.86
2023-02-22T18:31:18.195Z,88.06
2023-02-22T18:33:46.354Z,87.70
2023-02-22T18:36:14.357Z,88.70
2023-02-22T18:38:44.800Z,88.50
2023-02-22T18:41:13.685Z,87.98
2023-02-22T18:43:41.502Z,88.30
2023-02-22T18:46:13.790Z,88.01
2023-02-22T18:48:40.614Z,87.37
2023-02-22T18:51:13.569Z,86.83
2023-02-22T18:53:46.653Z,86.76
2023-02-22T18:56:22.007Z,86.71
2023-02-22T18:58:56.272Z,86.32
2023-02-22T19:01:23.096Z,85.70
2023-02-22T19:03:50.164Z,85.51
2023-02-22T19:06:18.710Z,85.37
2023-02-22T19:08:47.166Z,85.22
2023-02-22T19:11:18.007Z,85.23
2023-02-22T19:13:49.247Z,84.97
2023-02-22T19:16:21.860Z,84.71
2023-02-22T19:18:50.876Z,84.96
2023-02-22T19:21:17.964Z,84.75
2023-02-22T19:23:48.650Z,84.47
2023-02-22T19:26:19.741Z,85.23
2023-02-22T19:28:48.214Z,85.27
2023-02-22T19:31:18.408Z,85.29
2023-02-22T19:33:47.643Z,85.17
2023-02-22T19:36:15.205Z,85.19
2023-02-22T19:38:42.901Z,85.36
2023-02-22T19:41:12.488Z,85.49
2023-02-22T19:43:39.491Z,85.41
2023-02-22T19:46:07.480Z,85.54
2023-02-22T19:48:34.706Z,85.46
2023-02-22T19:51:14.215Z,85.32
2023-02-22T19:53:41.966Z,85.63
2023-02-22T19:56:10.525Z,86.11
2023-02-22T19:58:41.291Z,86.41
2023-02-22T20:01:15.988Z,86.02
2023-02-22T20:03:42.977Z,85.75
2023-02-22T20:06:11.535Z,86.06
2023-02-22T20:08:42.173Z,86.13
2023-02-22T20:11:10.539Z,86.52
2023-02-22T20:13:38.655Z,86.92
2023-02-22T20:16:05.887Z,87.29
2023-02-22T20:18:32.707Z,87.11
2023-02-22T20:20:59.332Z,87.12
2023-02-22T20:23:26.164Z,87.08
2023-02-22T20:25:55.078Z,86.62
2023-02-22T20:28:22.755Z,87.38
2023-02-22T20:30:51.576Z,87.21
2023-02-22T20:33:21.772Z,87.20
2023-02-22T20:35:48.461Z,87.95
2023-02-22T20:38:15.225Z,88.06
2023-02-22T20:40:42.604Z,88.96
2023-02-22T20:43:10.095Z,88.51
2023-02-22T20:45:38.339Z,88.39
2023-02-22T20:48:05.776Z,88.88
2023-02-22T20:50:34.592Z,89.09
2023-02-22T20:53:01.255Z,89.20
2023-02-22T20:55:27.786Z,89.20
2023-02-22T20:57:54.465Z,89.36
2023-02-22T21:00:21.108Z,89.73
2023-02-22T21:02:47.793Z,89.45
2023-02-22T21:05:14.700Z,90.37
2023-02-22T21:07:41.318Z,89.69
2023-02-22T21:10:08.254Z,89.76
2023-02-22T21:12:35.270Z,90.05
2023-02-22T21:15:01.965Z,91.01
2023-02-22T21:17:31.381Z,90.76
2023-02-22T21:19:58.588Z,91.40
2023-02-22T21:22:25.622Z,90.95
2023-02-22T21:24:53.308Z,90.90
2023-02-22T21:27:19.949Z,91.05
2023-02-22T21:29:46.784Z,91.19
2023-02-22T21:32:13.906Z,91.31
2023-02-22T21:34:40.982Z,91.67
2023-02-22T21:37:08.374Z,92.33
2023-02-22T21:39:35.561Z,92.18
2023-02-22T21:42:02.763Z,92.51
2023-02-22T21:44:29.970Z,92.18
2023-02-22T21:46:57.193Z,92.74
2023-02-22T21:49:23.972Z,93.51
2023-02-22T21:51:52.524Z,93.24
2023-02-22T21:54:19.622Z,93.08
2023-02-22T21:56:46.350Z,93.30
2023-02-22T21:59:22.556Z,93.45
2023-02-22T22:01:56.454Z,93.47
2023-02-22T22:04:27.611Z,93.84
2023-02-22T22:06:56.617Z,93.54
2023-02-22T22:09:24.276Z,93.61
2023-02-22T22:12:00.280Z,93.22
2023-02-22T22:14:28.149Z,93.27
2023-02-22T22:16:59.733Z,93.25
2023-02-22T22:19:30.712Z,94.41
2023-02-22T22:21:58.201Z,94.10
2023-02-22T22:24:25.381Z,93.73
2023-02-22T22:26:55.502Z,93.40
2023-02-22T22:29:24.501Z,93.45
2023-02-22T22:31:51.913Z,93.26
2023-02-22T22:34:19.565Z,93.34
2023-02-22T22:36:46.613Z,93.18
2023-02-22T22:39:13.301Z,92.95
2023-02-22T22:41:44.277Z,94.32
2023-02-22T22:44:15.492Z,93.97
2023-02-22T22:46:43.435Z,94.08
2023-02-22T22:49:12.203Z,93.99
2023-02-22T22:51:41.052Z,93.69
2023-02-22T22:54:09.567Z,93.98
2023-02-22T22:56:37.989Z,94.09
2023-02-22T22:59:08.397Z,93.96
2023-02-22T23:01:40.071Z,94.69
2023-02-22T23:04:10.639Z,94.57
2023-02-22T23:06:43.766Z,95.22
2023-02-22T23:09:18.627Z,94.80
2023-02-22T23:11:50.629Z,94.96
2023-02-22T23:14:24.243Z,94.78
2023-02-22T23:16:53.334Z,94.65
2023-02-22T23:19:20.359Z,94.79
2023-02-22T23:21:48.536Z,94.39
2023-02-22T23:24:17.013Z,94.73
2023-02-22T23:26:50.871Z,94.31
2023-02-22T23:29:19.778Z,94.46
2023-02-22T23:31:48.617Z,94.65
2023-02-22T23:34:21.279Z,94.77
2023-02-22T23:36:48.596Z,94.78
2023-02-22T23:39:22.071Z,94.73
2023-02-22T23:41:54.176Z,94.85
2023-02-22T23:44:21.981Z,95.09
2023-02-22T23:46:55.166Z,94.95
2023-02-22T23:49:26.444Z,95.15
2023-02-22T23:51:53.508Z,94.96
2023-02-22T23:54:21.354Z,95.18
2023-02-22T23:56:57.937Z,95.13
2023-02-22T23:59:26.762Z,96.13
